Airfield :
LOGIN :

Register | Disclaimer

   EN    FR    IT 

 










Legend :    VFR   Marginal VFR   IFR   Intensive IFR   Very Intensive IFR
Visi :
Ceiling :
>= 8 km
>= 3000ft
5 to 8 km
1000 to 3000 ft
1500m to 5 km
500 to 1000 ft
800 to 1500m
200 to 500 ft
< 800m
< 200 ft
Symbols :   Thunderstorms  Fog  Heavy snow  Heavy precipitations  Wind > 20 kt
SIGMETs :     Misc.  Thunderstorms  Icing  Turbulence  Mountain Waves  Volcanic Ashes






- Airport Elevation : 75 ft
- IATA code : YEO


EGDY - RNAS Yeovilton

CURRENT METAR :
  • 072050Z 00000KT CAVOK 11/05 Q1026 NOSIG RMK BLU BLU

EXPIRED METARs :
  • 072020Z 10001KT CAVOK 12/04 Q1026 NOSIG RMK BLU BLU
  • 071950Z 06002KT CAVOK 12/04 Q1026 NOSIG RMK BLU BLU
  • 071922Z 06003KT CAVOK 12/03 Q1026 NOSIG RMK BLU BLU
  • 071850Z 11001KT CAVOK 13/03 Q1026 BLU NOSIG RMK BLU BLU
  • 071821Z 15003KT CAVOK 14/03 Q1026 TEMPO 9999 -SHRA RMK BLU TEMPO BLU

TAF TAF EGDY
Valid from the 07 at 15:00 until the 08 at 00:00 UTC


071411Z 0715/0724 12007KT 9999 FEW040
PROB30
TEMPO 0720/0724 9999 -SHRA BKN065
BECMG 0722/0724 04005KT



MET'MAP, your aeronautical weather chart ! - Copyright ORBIFLY December 2007 - Disclaimer

ORBIFLY MET'MAP TEAM :

Programming & Development : Alexandra Zaïnal
Concept & original design : Baudouin d'Aumeries
Assistance for programming : Marc-Olivier Méhu
Technical & hardware support : Manuel Goepfert

Contact : metmap@orbifly.com




SOURCES & CREDITS :

   NOAA